createdAt,value
2019-05-25T00:01:08.965Z,13.09
2019-05-25T00:03:36.627Z,13.06
2019-05-25T00:06:04.378Z,12.98
2019-05-25T00:08:32.374Z,12.91
2019-05-25T00:10:59.968Z,12.81
2019-05-25T00:13:28.046Z,12.77
2019-05-25T00:15:56.625Z,12.68
2019-05-25T00:18:24.434Z,12.67
2019-05-25T00:20:52.003Z,12.59
2019-05-25T00:23:19.650Z,12.52
2019-05-25T00:25:47.337Z,12.46
2019-05-25T00:28:15.060Z,12.47
2019-05-25T00:30:45.356Z,12.27
2019-05-25T00:33:13.080Z,12.40
2019-05-25T00:35:40.702Z,12.36
2019-05-25T00:38:09.388Z,12.32
2019-05-25T00:40:37.133Z,12.32
2019-05-25T00:43:04.826Z,12.24
2019-05-25T00:45:32.530Z,12.23
2019-05-25T00:48:00.347Z,12.16
2019-05-25T00:50:27.954Z,12.15
2019-05-25T00:52:55.668Z,12.11
2019-05-25T00:55:23.303Z,12.05
2019-05-25T00:57:50.958Z,12.05
2019-05-25T01:00:19.870Z,12.02
2019-05-25T01:02:47.493Z,11.93
2019-05-25T01:05:15.220Z,11.91
2019-05-25T01:07:42.897Z,11.79
2019-05-25T01:10:10.664Z,11.85
2019-05-25T01:12:38.276Z,11.90
2019-05-25T01:15:07.073Z,11.79
2019-05-25T01:17:34.699Z,11.70
2019-05-25T01:20:02.493Z,11.64
2019-05-25T01:22:30.184Z,11.63
2019-05-25T01:24:57.763Z,11.65
2019-05-25T01:27:25.451Z,11.63
2019-05-25T01:29:53.053Z,11.56
2019-05-25T01:32:20.709Z,11.55
2019-05-25T01:34:48.278Z,11.57
2019-05-25T01:37:15.959Z,11.55
2019-05-25T01:39:43.691Z,11.45
2019-05-25T01:42:11.373Z,11.35
2019-05-25T01:44:39.079Z,11.32
2019-05-25T01:47:06.876Z,11.27
2019-05-25T01:49:34.585Z,11.13
2019-05-25T01:52:02.325Z,11.22
2019-05-25T01:54:29.983Z,11.22
2019-05-25T01:56:57.723Z,11.14
2019-05-25T01:59:27.033Z,11.16
2019-05-25T02:01:54.682Z,11.19
2019-05-25T02:04:22.330Z,11.11
2019-05-25T02:06:49.913Z,11.08
2019-05-25T02:09:17.582Z,11.03
2019-05-25T02:11:45.477Z,11.03
2019-05-25T02:14:13.187Z,10.96
2019-05-25T02:16:40.937Z,10.89
2019-05-25T02:19:08.596Z,10.84
2019-05-25T02:21:36.174Z,10.82
2019-05-25T02:24:03.882Z,10.77
2019-05-25T02:26:31.480Z,10.76
2019-05-25T02:28:59.140Z,10.72
2019-05-25T02:31:26.769Z,10.74
2019-05-25T02:33:54.520Z,10.75
2019-05-25T02:36:22.079Z,10.71
2019-05-25T02:38:49.961Z,10.70
2019-05-25T02:41:17.559Z,10.71
2019-05-25T02:43:45.279Z,10.62
2019-05-25T02:46:12.875Z,10.56
2019-05-25T02:48:40.547Z,10.53
2019-05-25T02:51:10.077Z,10.51
2019-05-25T02:53:37.697Z,10.46
2019-05-25T02:56:05.393Z,10.52
2019-05-25T02:58:33.169Z,10.45
2019-05-25T03:01:00.885Z,10.44
2019-05-25T03:03:28.583Z,10.47
2019-05-25T03:05:56.623Z,10.49
2019-05-25T03:08:25.779Z,10.46
2019-05-25T03:10:54.873Z,10.41
2019-05-25T03:13:22.471Z,10.36
2019-05-25T03:15:50.194Z,10.36
2019-05-25T03:18:17.737Z,10.40
2019-05-25T03:20:45.399Z,10.43
2019-05-25T03:23:12.974Z,10.39
2019-05-25T03:25:49.060Z,10.33
2019-05-25T03:28:10.218Z,10.31
2019-05-25T03:30:38.121Z,10.28
2019-05-25T03:33:05.723Z,10.25
2019-05-25T03:35:33.613Z,10.20
2019-05-25T03:38:01.206Z,10.21
2019-05-25T03:40:28.923Z,10.20
2019-05-25T03:42:57.089Z,10.37
2019-05-25T03:45:24.765Z,10.28
2019-05-25T03:47:53.201Z,10.25
2019-05-25T03:50:22.181Z,10.26
2019-05-25T03:52:49.805Z,10.25
2019-05-25T03:55:17.458Z,10.28
2019-05-25T03:57:45.116Z,10.29
2019-05-25T04:00:13.054Z,10.33
2019-05-25T04:02:40.694Z,10.43
2019-05-25T04:05:08.455Z,10.46
2019-05-25T04:07:36.037Z,10.53
2019-05-25T04:10:04.163Z,10.57
2019-05-25T04:12:31.834Z,10.64
2019-05-25T04:14:59.415Z,10.68
2019-05-25T04:17:27.029Z,10.72
2019-05-25T04:19:54.658Z,10.75
2019-05-25T04:22:22.210Z,10.90
2019-05-25T04:24:49.845Z,11.01
2019-05-25T04:27:17.457Z,11.09
2019-05-25T04:29:44.990Z,11.13
2019-05-25T04:32:12.701Z,11.25
2019-05-25T04:34:40.312Z,11.34
2019-05-25T04:37:07.830Z,11.40
2019-05-25T04:39:35.494Z,11.54
2019-05-25T04:42:03.206Z,11.61
2019-05-25T04:44:30.891Z,11.63
2019-05-25T04:46:58.454Z,11.87
2019-05-25T04:49:26.101Z,12.04
2019-05-25T04:51:53.624Z,12.13
2019-05-25T04:54:21.371Z,12.26
2019-05-25T04:56:49.779Z,12.34
2019-05-25T04:59:17.470Z,12.46
2019-05-25T05:01:45.182Z,12.55
2019-05-25T05:04:12.867Z,12.69
2019-05-25T05:06:40.450Z,12.86
2019-05-25T05:09:08.048Z,12.91
2019-05-25T05:11:35.650Z,13.12
2019-05-25T05:14:03.472Z,13.12
2019-05-25T05:16:31.794Z,13.29
2019-05-25T05:18:59.406Z,13.39
2019-05-25T05:21:26.973Z,13.47
2019-05-25T05:23:54.621Z,13.52
2019-05-25T05:26:22.201Z,13.65
2019-05-25T05:28:50.094Z,13.79
2019-05-25T05:31:23.407Z,13.93
2019-05-25T05:33:47.233Z,14.07
2019-05-25T05:36:15.237Z,14.18
2019-05-25T05:38:43.522Z,14.29
2019-05-25T05:41:11.617Z,14.43
2019-05-25T05:43:39.991Z,14.52
2019-05-25T05:46:08.635Z,14.65
2019-05-25T05:48:37.763Z,14.78
2019-05-25T05:51:07.249Z,14.94
2019-05-25T05:53:35.930Z,15.08
2019-05-25T05:56:03.919Z,15.22
2019-05-25T05:58:31.539Z,15.39
2019-05-25T06:00:59.176Z,15.56
2019-05-25T06:03:26.916Z,15.73
2019-05-25T06:05:54.747Z,15.95
2019-05-25T06:08:22.367Z,16.01
2019-05-25T06:10:50.085Z,16.18
2019-05-25T06:13:17.657Z,16.50
2019-05-25T06:15:45.387Z,16.62
2019-05-25T06:18:13.448Z,16.75
2019-05-25T06:20:41.200Z,16.87
2019-05-25T06:23:12.329Z,16.95
2019-05-25T06:25:38.331Z,17.16
2019-05-25T06:28:05.953Z,17.27
2019-05-25T06:30:33.571Z,17.39
2019-05-25T06:33:01.262Z,17.56
2019-05-25T06:35:29.022Z,17.66
2019-05-25T06:37:56.641Z,17.84
2019-05-25T06:40:24.394Z,17.94
2019-05-25T06:42:52.187Z,17.93
2019-05-25T06:45:19.869Z,18.06
2019-05-25T06:47:47.678Z,18.25
2019-05-25T06:50:15.513Z,18.44
2019-05-25T06:52:43.229Z,18.64
2019-05-25T06:55:11.060Z,18.73
2019-05-25T06:57:43.581Z,18.85
2019-05-25T07:00:08.895Z,19.11
2019-05-25T07:02:36.669Z,19.40
2019-05-25T07:05:05.554Z,19.57
2019-05-25T07:07:33.289Z,19.73
2019-05-25T07:10:00.996Z,19.80
2019-05-25T07:12:28.670Z,20.02
2019-05-25T07:14:56.435Z,20.38
2019-05-25T07:17:24.143Z,20.58
2019-05-25T07:19:51.966Z,20.69
2019-05-25T07:22:19.679Z,20.88
2019-05-25T07:24:47.407Z,21.18
2019-05-25T07:27:15.061Z,21.48
2019-05-25T07:29:42.826Z,21.53
2019-05-25T07:32:10.386Z,21.79
2019-05-25T07:34:38.033Z,22.01
2019-05-25T07:37:05.727Z,22.21
2019-05-25T07:39:33.408Z,22.46
2019-05-25T07:42:01.365Z,22.72
2019-05-25T07:44:29.095Z,22.82
2019-05-25T07:46:56.723Z,22.73
2019-05-25T07:49:24.373Z,23.00
2019-05-25T07:51:52.044Z,23.13
2019-05-25T07:54:19.623Z,23.32
2019-05-25T07:56:47.249Z,23.54
2019-05-25T07:59:14.895Z,23.68
2019-05-25T08:01:42.535Z,23.84
2019-05-25T08:04:10.067Z,23.89
2019-05-25T08:06:37.763Z,23.81
2019-05-25T08:09:06.569Z,23.87
2019-05-25T08:11:34.490Z,24.06
2019-05-25T08:14:02.080Z,24.18
2019-05-25T08:16:29.787Z,24.16
2019-05-25T08:18:59.210Z,24.48
2019-05-25T08:21:26.861Z,24.83
2019-05-25T08:23:54.482Z,25.09
2019-05-25T08:26:22.300Z,25.28
2019-05-25T08:28:50.081Z,25.25
2019-05-25T08:31:18.118Z,25.27
2019-05-25T08:33:45.779Z,25.48
2019-05-25T08:36:13.441Z,25.70
2019-05-25T08:38:40.976Z,25.81
2019-05-25T08:41:08.656Z,25.96
2019-05-25T08:43:37.354Z,25.94
2019-05-25T08:46:05.025Z,25.85
2019-05-25T08:48:32.965Z,26.08
2019-05-25T08:51:00.617Z,26.33
2019-05-25T08:53:40.642Z,26.58
2019-05-25T08:55:57.886Z,26.67
2019-05-25T08:58:25.614Z,26.99
2019-05-25T09:00:53.302Z,27.05
2019-05-25T09:03:20.926Z,27.01
2019-05-25T09:05:48.617Z,26.63
2019-05-25T09:08:16.169Z,26.57
2019-05-25T09:10:43.767Z,26.81
2019-05-25T09:13:11.361Z,26.73
2019-05-25T09:15:39.008Z,26.94
2019-05-25T09:18:06.759Z,27.37
2019-05-25T09:20:34.466Z,27.63
2019-05-25T09:23:03.357Z,27.54
2019-05-25T09:25:31.017Z,27.62
2019-05-25T09:27:58.601Z,28.05
2019-05-25T09:30:26.234Z,28.41
2019-05-25T09:32:53.965Z,28.52
2019-05-25T09:35:21.599Z,28.57
2019-05-25T09:37:49.325Z,28.50
2019-05-25T09:40:16.984Z,28.61
2019-05-25T09:42:44.826Z,28.49
2019-05-25T09:45:14.230Z,28.50
2019-05-25T09:47:42.166Z,28.73
2019-05-25T09:50:11.140Z,29.09
2019-05-25T09:52:38.882Z,29.19
2019-05-25T09:55:06.964Z,29.36
2019-05-25T09:57:35.769Z,29.13
2019-05-25T10:00:04.195Z,29.44
2019-05-25T10:02:31.898Z,29.31
2019-05-25T10:05:01.202Z,29.71
2019-05-25T10:07:28.996Z,29.88
2019-05-25T10:09:56.740Z,29.97
2019-05-25T10:12:24.583Z,30.01
2019-05-25T10:14:52.130Z,29.78
2019-05-25T10:17:19.878Z,29.79
2019-05-25T10:19:47.439Z,29.53
2019-05-25T10:22:15.175Z,29.45
2019-05-25T10:24:42.766Z,29.88
2019-05-25T10:27:10.466Z,29.68
2019-05-25T10:29:38.671Z,29.86
2019-05-25T10:32:06.418Z,30.12
2019-05-25T10:34:34.082Z,30.29
2019-05-25T10:37:01.722Z,30.48
2019-05-25T10:39:29.307Z,29.89
2019-05-25T10:41:58.119Z,29.25
2019-05-25T10:44:25.935Z,28.91
2019-05-25T10:46:53.613Z,29.34
2019-05-25T10:49:21.354Z,29.79
2019-05-25T10:51:49.088Z,29.76
2019-05-25T10:54:16.855Z,29.55
2019-05-25T10:56:44.604Z,29.79
2019-05-25T10:59:12.298Z,29.98
2019-05-25T11:01:39.881Z,30.43
2019-05-25T11:04:07.674Z,30.68
2019-05-25T11:06:35.183Z,30.54
2019-05-25T11:09:03.763Z,30.61
2019-05-25T11:11:31.381Z,30.80
2019-05-25T11:13:59.018Z,30.78
2019-05-25T11:16:26.578Z,31.01
2019-05-25T11:18:54.289Z,31.21
2019-05-25T11:21:21.816Z,31.27
2019-05-25T11:23:49.447Z,31.36
2019-05-25T11:26:17.003Z,31.63
2019-05-25T11:28:44.705Z,32.04
2019-05-25T11:31:12.233Z,31.35
2019-05-25T11:33:39.985Z,31.49
2019-05-25T11:36:07.525Z,31.72
2019-05-25T11:38:35.200Z,31.38
2019-05-25T11:41:02.891Z,30.94
2019-05-25T11:43:30.512Z,30.69
2019-05-25T11:45:58.295Z,31.15
2019-05-25T11:48:25.892Z,31.10
2019-05-25T11:50:53.732Z,31.01
2019-05-25T11:53:21.380Z,30.89
2019-05-25T11:55:49.851Z,30.87
2019-05-25T11:58:17.560Z,31.06
2019-05-25T12:00:45.612Z,31.00
2019-05-25T12:03:13.274Z,30.59
2019-05-25T12:05:41.048Z,30.57
2019-05-25T12:08:08.848Z,30.83
2019-05-25T12:10:36.612Z,30.29
2019-05-25T12:13:04.521Z,30.04
2019-05-25T12:15:32.190Z,30.14
2019-05-25T12:18:00.024Z,29.95
2019-05-25T12:20:27.753Z,29.96
2019-05-25T12:22:55.401Z,29.82
2019-05-25T12:25:23.097Z,30.15
2019-05-25T12:27:50.705Z,30.10
2019-05-25T12:30:18.670Z,30.25
2019-05-25T12:32:46.309Z,30.23
2019-05-25T12:35:14.164Z,29.68
2019-05-25T12:37:41.938Z,29.45
2019-05-25T12:40:09.995Z,30.16
2019-05-25T12:42:37.779Z,30.12
2019-05-25T12:45:06.538Z,30.44
2019-05-25T12:47:34.274Z,30.51
2019-05-25T12:50:01.926Z,30.54
2019-05-25T12:52:29.642Z,30.14
2019-05-25T12:54:57.213Z,30.40
2019-05-25T12:57:25.001Z,29.94
2019-05-25T12:59:52.715Z,30.08
2019-05-25T13:02:20.425Z,30.25
2019-05-25T13:04:49.154Z,30.14
2019-05-25T13:07:16.856Z,29.80
2019-05-25T13:09:44.398Z,29.51
2019-05-25T13:12:12.122Z,29.46
2019-05-25T13:14:39.837Z,29.54
2019-05-25T13:17:07.847Z,29.74
2019-05-25T13:19:35.584Z,29.38
2019-05-25T13:22:03.391Z,29.17
2019-05-25T13:24:31.237Z,28.82
2019-05-25T13:27:00.538Z,28.63
2019-05-25T13:29:28.303Z,28.87
2019-05-25T13:31:55.997Z,28.99
2019-05-25T13:34:23.738Z,28.75
2019-05-25T13:36:54.033Z,28.75
2019-05-25T13:39:21.836Z,28.46
2019-05-25T13:41:49.573Z,28.32
2019-05-25T13:44:17.383Z,27.84
2019-05-25T13:46:45.169Z,27.41
2019-05-25T13:49:12.913Z,27.27
2019-05-25T13:51:40.693Z,26.95
2019-05-25T13:54:08.311Z,26.80
2019-05-25T13:56:35.846Z,26.73
2019-05-25T13:59:03.609Z,26.87
2019-05-25T14:01:31.289Z,27.00
2019-05-25T14:03:59.037Z,26.90
2019-05-25T14:06:26.722Z,26.83
2019-05-25T14:08:54.350Z,26.83
2019-05-25T14:11:21.900Z,26.72
2019-05-25T14:13:49.536Z,26.70
2019-05-25T14:16:17.088Z,26.74
2019-05-25T14:18:44.840Z,26.68
2019-05-25T14:21:12.428Z,26.79
2019-05-25T14:23:40.050Z,26.80
2019-05-25T14:26:07.674Z,26.75
2019-05-25T14:28:35.400Z,26.65
2019-05-25T14:31:02.955Z,26.47
2019-05-25T14:33:30.742Z,26.37
2019-05-25T14:35:58.368Z,26.08
2019-05-25T14:38:26.038Z,25.82
2019-05-25T14:40:53.651Z,25.65
2019-05-25T14:43:21.552Z,25.38
2019-05-25T14:45:53.122Z,25.16
2019-05-25T14:48:19.219Z,25.19
2019-05-25T14:50:46.930Z,25.06
2019-05-25T14:53:14.772Z,24.97
2019-05-25T14:55:42.594Z,24.88
2019-05-25T14:58:12.848Z,24.68
2019-05-25T15:00:39.946Z,24.55
2019-05-25T15:03:07.770Z,24.49
2019-05-25T15:05:36.534Z,24.19
2019-05-25T15:08:04.305Z,23.87
2019-05-25T15:10:32.206Z,23.43
2019-05-25T15:13:00.002Z,22.94
2019-05-25T15:15:27.787Z,22.77
2019-05-25T15:17:55.478Z,22.45
2019-05-25T15:20:23.395Z,22.45
2019-05-25T15:22:51.164Z,22.28
2019-05-25T15:25:19.007Z,22.03
2019-05-25T15:27:46.767Z,21.78
2019-05-25T15:30:14.611Z,21.67
2019-05-25T15:32:42.292Z,21.64
2019-05-25T15:35:10.232Z,21.20
2019-05-25T15:37:37.987Z,21.06
2019-05-25T15:40:07.284Z,20.91
2019-05-25T15:42:35.041Z,20.69
2019-05-25T15:45:03.064Z,20.29
2019-05-25T15:47:30.724Z,19.99
2019-05-25T15:49:58.438Z,19.80
2019-05-25T15:52:26.204Z,19.64
2019-05-25T15:54:53.922Z,19.51
2019-05-25T15:57:21.662Z,19.44
2019-05-25T15:59:49.358Z,19.27
2019-05-25T16:02:17.139Z,19.22
2019-05-25T16:04:44.829Z,19.09
2019-05-25T16:07:12.513Z,18.89
2019-05-25T16:09:40.287Z,18.85
2019-05-25T16:12:08.646Z,18.76
2019-05-25T16:14:36.351Z,18.68
2019-05-25T16:17:04.139Z,18.57
2019-05-25T16:19:31.940Z,18.53
2019-05-25T16:21:59.728Z,18.46
2019-05-25T16:24:27.486Z,18.29
2019-05-25T16:26:55.415Z,18.06
2019-05-25T16:29:23.080Z,18.14
2019-05-25T16:31:50.897Z,18.04
2019-05-25T16:34:18.591Z,18.09
2019-05-25T16:36:46.317Z,18.08
2019-05-25T16:39:13.969Z,18.16
2019-05-25T16:41:41.753Z,18.20
2019-05-25T16:44:09.382Z,18.30
2019-05-25T16:46:37.084Z,18.38
2019-05-25T16:49:04.755Z,18.38
2019-05-25T16:51:32.455Z,18.46
2019-05-25T16:54:00.117Z,18.57
2019-05-25T16:56:27.859Z,18.61
2019-05-25T16:58:55.953Z,18.69
2019-05-25T17:01:23.870Z,18.73
2019-05-25T17:03:51.670Z,18.77
2019-05-25T17:06:19.387Z,18.88
2019-05-25T17:08:47.118Z,18.94
2019-05-25T17:11:14.848Z,18.80
2019-05-25T17:13:42.591Z,18.94
2019-05-25T17:16:10.302Z,18.94
2019-05-25T17:18:38.131Z,18.92
2019-05-25T17:21:05.988Z,18.89
2019-05-25T17:23:33.717Z,18.80
2019-05-25T17:26:01.458Z,18.77
2019-05-25T17:28:29.228Z,18.74
2019-05-25T17:30:57.029Z,18.67
2019-05-25T17:33:24.916Z,18.65
2019-05-25T17:35:52.756Z,18.62
2019-05-25T17:38:20.511Z,18.61
2019-05-25T17:40:48.347Z,18.59
2019-05-25T17:43:16.094Z,18.62
2019-05-25T17:45:43.778Z,18.64
2019-05-25T17:48:11.711Z,18.56
2019-05-25T17:50:39.488Z,18.50
2019-05-25T17:53:07.193Z,18.45
2019-05-25T17:55:34.959Z,18.39
2019-05-25T17:58:02.687Z,18.40
2019-05-25T18:00:41.899Z,18.28
2019-05-25T18:03:09.622Z,18.17
2019-05-25T18:05:37.364Z,18.07
2019-05-25T18:08:05.073Z,18.00
2019-05-25T18:10:49.066Z,17.94
2019-05-25T18:13:02.764Z,17.86
2019-05-25T18:15:30.416Z,17.88
2019-05-25T18:17:58.061Z,17.82
2019-05-25T18:20:25.613Z,17.72
2019-05-25T18:22:55.689Z,17.67
2019-05-25T18:25:25.231Z,17.61
2019-05-25T18:27:53.486Z,17.55
2019-05-25T18:30:21.717Z,17.42
2019-05-25T18:32:49.394Z,17.35
2019-05-25T18:35:17.121Z,17.32
2019-05-25T18:37:44.882Z,17.34
2019-05-25T18:40:12.973Z,17.28
2019-05-25T18:42:40.784Z,17.23
2019-05-25T18:45:09.366Z,17.04
2019-05-25T18:47:37.477Z,17.10
2019-05-25T18:50:05.646Z,17.06
2019-05-25T18:52:33.440Z,16.90
2019-05-25T18:55:01.105Z,16.80
2019-05-25T18:57:28.772Z,16.87
2019-05-25T18:59:56.370Z,16.79
2019-05-25T19:02:24.013Z,16.73
2019-05-25T19:04:59.405Z,16.67
2019-05-25T19:07:21.461Z,16.55
2019-05-25T19:09:49.169Z,16.64
2019-05-25T19:12:16.987Z,16.57
2019-05-25T19:14:44.755Z,16.56
2019-05-25T19:17:12.475Z,16.57
2019-05-25T19:19:40.375Z,16.53
2019-05-25T19:22:08.098Z,16.53
2019-05-25T19:24:35.846Z,16.50
2019-05-25T19:27:03.584Z,16.46
2019-05-25T19:29:31.326Z,16.46
2019-05-25T19:31:59.143Z,16.41
2019-05-25T19:34:26.900Z,16.31
2019-05-25T19:36:54.726Z,16.23
2019-05-25T19:39:22.428Z,16.20
2019-05-25T19:41:50.155Z,16.23
2019-05-25T19:44:17.849Z,16.21
2019-05-25T19:46:45.507Z,16.20
2019-05-25T19:49:13.119Z,16.13
2019-05-25T19:51:42.072Z,16.07
2019-05-25T19:54:09.838Z,16.03
2019-05-25T19:56:37.684Z,15.93
2019-05-25T19:59:05.391Z,15.89
2019-05-25T20:01:33.141Z,15.71
2019-05-25T20:04:01.789Z,15.82
2019-05-25T20:06:29.603Z,15.81
2019-05-25T20:08:58.419Z,15.71
2019-05-25T20:11:26.230Z,15.68
2019-05-25T20:13:53.970Z,15.61
2019-05-25T20:16:24.938Z,15.60
2019-05-25T20:18:51.453Z,15.50
2019-05-25T20:21:19.246Z,15.52
2019-05-25T20:23:46.889Z,15.47
2019-05-25T20:26:14.553Z,15.47
2019-05-25T20:28:42.221Z,15.42
2019-05-25T20:31:09.903Z,15.35
2019-05-25T20:33:37.548Z,15.28
2019-05-25T20:36:05.184Z,15.30
2019-05-25T20:38:32.770Z,15.25
2019-05-25T20:41:00.530Z,15.16
2019-05-25T20:43:28.112Z,15.16
2019-05-25T20:45:55.761Z,15.12
2019-05-25T20:48:23.368Z,15.08
2019-05-25T20:50:51.041Z,15.03
2019-05-25T20:53:18.752Z,14.99
2019-05-25T20:55:46.356Z,14.95
2019-05-25T20:58:14.000Z,14.92
2019-05-25T21:00:41.744Z,15.02
2019-05-25T21:03:09.608Z,14.97
2019-05-25T21:05:49.645Z,14.98
2019-05-25T21:08:06.824Z,15.00
2019-05-25T21:10:34.493Z,15.00
2019-05-25T21:13:03.813Z,15.01
2019-05-25T21:15:31.506Z,15.02
2019-05-25T21:17:59.141Z,15.01
2019-05-25T21:20:26.821Z,14.97
2019-05-25T21:22:54.390Z,14.94
2019-05-25T21:25:22.297Z,14.94
2019-05-25T21:27:49.958Z,15.03
2019-05-25T21:30:18.907Z,15.01
2019-05-25T21:32:46.839Z,14.99
2019-05-25T21:35:15.045Z,14.97
2019-05-25T21:37:42.718Z,14.96
2019-05-25T21:40:10.343Z,15.02
2019-05-25T21:42:38.073Z,15.04
2019-05-25T21:45:06.344Z,15.06
2019-05-25T21:47:34.054Z,15.11
2019-05-25T21:50:01.786Z,15.19
2019-05-25T21:52:30.991Z,15.12
2019-05-25T21:54:58.639Z,15.11
2019-05-25T21:57:26.236Z,15.07
2019-05-25T21:59:53.832Z,15.05
2019-05-25T22:02:21.708Z,14.99
2019-05-25T22:04:49.343Z,14.83
2019-05-25T22:07:17.022Z,14.97
2019-05-25T22:09:44.671Z,14.98
2019-05-25T22:12:12.339Z,15.02
2019-05-25T22:14:40.081Z,15.05
2019-05-25T22:17:07.839Z,15.07
2019-05-25T22:19:35.510Z,15.08
2019-05-25T22:22:04.478Z,15.06
2019-05-25T22:24:32.115Z,15.11
2019-05-25T22:26:59.869Z,15.06
2019-05-25T22:29:27.475Z,15.02
2019-05-25T22:31:55.211Z,15.00
2019-05-25T22:34:22.861Z,15.05
2019-05-25T22:36:51.546Z,15.03
2019-05-25T22:39:19.257Z,15.04
2019-05-25T22:41:46.884Z,15.00
2019-05-25T22:44:14.478Z,14.99
2019-05-25T22:46:42.136Z,14.98
2019-05-25T22:49:09.730Z,14.97
2019-05-25T22:51:37.452Z,14.98
2019-05-25T22:54:05.106Z,15.00
2019-05-25T22:56:32.723Z,15.01
2019-05-25T22:59:00.301Z,15.01
2019-05-25T23:01:27.957Z,14.98
2019-05-25T23:03:55.533Z,14.98
2019-05-25T23:06:23.214Z,15.02
2019-05-25T23:08:50.851Z,14.98
2019-05-25T23:11:18.522Z,14.90
2019-05-25T23:13:47.407Z,14.77
2019-05-25T23:16:15.102Z,14.71
2019-05-25T23:18:42.973Z,14.63
2019-05-25T23:21:10.685Z,14.52
2019-05-25T23:23:38.305Z,14.43
2019-05-25T23:26:05.966Z,14.41
2019-05-25T23:28:33.733Z,14.44
2019-05-25T23:31:01.409Z,14.32
2019-05-25T23:33:29.025Z,14.20
2019-05-25T23:35:56.683Z,14.12
2019-05-25T23:38:24.306Z,14.08
2019-05-25T23:40:51.997Z,14.02
2019-05-25T23:43:19.655Z,13.97
2019-05-25T23:45:48.406Z,13.97
2019-05-25T23:48:17.035Z,13.91
2019-05-25T23:50:44.657Z,13.81
2019-05-25T23:53:12.205Z,13.82
2019-05-25T23:55:39.959Z,13.75
2019-05-25T23:58:07.637Z,13.71
